Time;durP1;ratioP1;P1;durP2;ratioP2;P2;SDS_P1;SDS_P2;PMS_P1;PMS_P2;Temp;Humidity;BMP_temperature;BMP_pressure;BME280_temperature;BME280_humidity;BME280_pressure;Samples;Min_cycle;Max_cycle;Signal;HPM_P1;HPM_P2
2023/12/28 00:00:27;;;;;;;6.25;2.53;;;11.70;99.90;;;;;;4945084;28;20491;-80
2023/12/28 00:02:54;;;;;;;10.00;2.55;;;11.70;99.90;;;;;;4945374;28;20727;-81
2023/12/28 00:05:21;;;;;;;7.43;2.63;;;11.70;99.90;;;;;;4935308;28;20057;-80
2023/12/28 00:07:49;;;;;;;8.98;2.70;;;11.70;99.90;;;;;;4960469;28;20411;-80
2023/12/28 00:10:16;;;;;;;9.82;3.33;;;11.70;99.90;;;;;;4945569;28;20050;-80
2023/12/28 00:12:44;;;;;;;7.47;2.50;;;11.70;99.90;;;;;;4952802;28;20043;-79
2023/12/28 00:15:11;;;;;;;10.02;2.85;;;11.80;99.90;;;;;;4933324;28;20601;-80
2023/12/28 00:17:39;;;;;;;9.63;2.30;;;11.80;99.90;;;;;;4954737;28;20066;-81
2023/12/28 00:20:07;;;;;;;5.68;2.00;;;11.80;99.90;;;;;;4963887;28;20132;-81
2023/12/28 00:22:34;;;;;;;7.03;2.88;;;11.80;99.90;;;;;;4940966;28;20508;-80
2023/12/28 00:25:01;;;;;;;8.18;3.17;;;11.80;99.90;;;;;;4932995;28;20051;-81
2023/12/28 00:27:28;;;;;;;5.72;2.03;;;11.80;99.90;;;;;;4935420;28;20086;-81
2023/12/28 00:29:58;;;;;;;6.50;2.42;;;11.90;99.90;;;;;;4946956;28;20366;-80
2023/12/28 00:32:27;;;;;;;12.85;3.38;;;11.90;99.90;;;;;;4933699;28;20632;-80
2023/12/28 00:34:54;;;;;;;4.80;1.95;;;11.90;99.90;;;;;;4949291;28;20053;-80
2023/12/28 00:37:23;;;;;;;8.95;3.15;;;11.90;99.90;;;;;;4948952;28;20050;-80
2023/12/28 00:39:51;;;;;;;10.70;3.08;;;11.90;99.90;;;;;;4949084;28;20088;-81
2023/12/28 00:42:19;;;;;;;8.70;2.70;;;11.90;99.90;;;;;;4947129;28;20043;-80
2023/12/28 00:44:47;;;;;;;9.30;3.22;;;12.00;99.90;;;;;;4964842;28;20139;-80
2023/12/28 00:47:14;;;;;;;10.27;3.60;;;12.00;99.90;;;;;;4961831;28;20047;-79
2023/12/28 00:49:41;;;;;;;11.00;3.22;;;12.00;99.90;;;;;;4932513;28;20068;-80
2023/12/28 00:52:08;;;;;;;14.73;3.70;;;11.90;99.90;;;;;;4949340;28;20042;-80
2023/12/28 00:54:38;;;;;;;10.98;3.22;;;11.90;99.90;;;;;;4949445;28;20054;-80
2023/12/28 00:57:06;;;;;;;8.25;3.33;;;11.90;99.90;;;;;;4949752;28;20074;-80
2023/12/28 00:59:33;;;;;;;6.03;3.45;;;11.80;99.90;;;;;;4949612;28;20539;-81
2023/12/28 01:02:00;;;;;;;9.45;2.75;;;11.80;99.90;;;;;;4947826;28;20421;-79
2023/12/28 01:04:28;;;;;;;9.38;2.70;;;11.70;99.90;;;;;;4929900;28;20059;-80
2023/12/28 01:06:55;;;;;;;13.60;4.50;;;11.70;99.90;;;;;;4931026;28;20055;-80
2023/12/28 01:09:22;;;;;;;13.75;4.03;;;11.60;99.90;;;;;;4950030;28;20181;-79
2023/12/28 01:11:50;;;;;;;10.30;3.67;;;11.60;99.90;;;;;;4949710;28;20129;-80
2023/12/28 01:14:17;;;;;;;12.05;3.45;;;11.50;99.90;;;;;;4933975;28;20135;-80
2023/12/28 01:16:44;;;;;;;7.40;3.00;;;11.30;99.90;;;;;;4929908;29;20082;-80
2023/12/28 01:19:12;;;;;;;8.95;2.33;;;11.20;99.90;;;;;;4951985;28;20078;-80
2023/12/28 01:21:39;;;;;;;6.93;2.20;;;11.10;99.90;;;;;;4948833;28;20133;-80
2023/12/28 01:24:07;;;;;;;8.63;3.03;;;11.10;99.90;;;;;;4949366;28;20158;-80
2023/12/28 01:26:36;;;;;;;8.05;2.53;;;11.00;99.90;;;;;;4948507;28;20061;-80
2023/12/28 01:29:03;;;;;;;8.93;2.38;;;11.10;99.90;;;;;;4946340;28;20043;-79
2023/12/28 01:31:30;;;;;;;5.55;2.25;;;11.10;99.90;;;;;;4932838;28;20125;-79
2023/12/28 01:33:57;;;;;;;11.07;3.45;;;11.10;99.90;;;;;;4932418;28;20137;-79
2023/12/28 01:36:25;;;;;;;13.20;3.25;;;11.30;99.90;;;;;;4946962;28;20055;-80
2023/12/28 01:38:52;;;;;;;10.90;3.78;;;11.30;99.90;;;;;;4932377;28;20067;-79
2023/12/28 01:41:20;;;;;;;12.27;2.95;;;11.30;99.90;;;;;;4948239;28;20047;-80
2023/12/28 01:43:47;;;;;;;12.27;4.05;;;11.30;99.90;;;;;;4962808;28;20047;-81
2023/12/28 01:46:16;;;;;;;9.30;2.95;;;11.30;99.90;;;;;;4932919;28;20054;-80
2023/12/28 01:48:46;;;;;;;7.68;2.67;;;11.30;99.90;;;;;;4947088;28;20047;-81
2023/12/28 01:51:14;;;;;;;6.22;2.70;;;11.30;99.90;;;;;;4932176;28;20070;-80
2023/12/28 01:53:42;;;;;;;10.45;3.88;;;11.30;99.90;;;;;;4964125;28;20141;-80
2023/12/28 01:56:09;;;;;;;7.45;3.05;;;11.30;99.90;;;;;;4933266;28;20046;-80
2023/12/28 01:58:36;;;;;;;6.30;2.42;;;11.30;99.90;;;;;;4948594;28;20520;-80
2023/12/28 02:01:04;;;;;;;8.70;2.70;;;11.30;99.90;;;;;;4949406;28;20047;-81
2023/12/28 02:03:31;;;;;;;8.32;2.80;;;11.30;99.90;;;;;;4947856;28;20461;-80
2023/12/28 02:05:59;;;;;;;8.98;2.53;;;11.40;99.90;;;;;;4946250;28;20078;-81
2023/12/28 02:08:26;;;;;;;9.98;3.63;;;11.50;99.90;;;;;;4958339;28;20057;-81
2023/12/28 02:10:54;;;;;;;10.45;2.75;;;11.50;99.90;;;;;;4949041;28;20165;-81
2023/12/28 02:13:22;;;;;;;12.10;4.35;;;11.60;99.90;;;;;;4948619;28;20114;-80
2023/12/28 02:15:58;;;;;;;13.00;3.50;;;11.70;99.90;;;;;;4932993;28;20051;-81
2023/12/28 02:18:30;;;;;;;9.35;3.35;;;11.80;99.90;;;;;;4954144;28;20517;-81
2023/12/28 02:20:57;;;;;;;10.40;4.47;;;11.80;99.90;;;;;;4948930;28;20046;-82
2023/12/28 02:23:24;;;;;;;15.68;3.72;;;11.80;99.90;;;;;;4963879;28;20384;-82
2023/12/28 02:25:51;;;;;;;14.35;4.22;;;11.80;99.90;;;;;;4949611;28;20055;-82
2023/12/28 02:28:18;;;;;;;12.00;4.07;;;11.70;99.90;;;;;;4933085;28;20055;-82
2023/12/28 02:30:45;;;;;;;15.55;4.20;;;11.70;99.90;;;;;;4953447;28;20069;-81
2023/12/28 02:33:24;;;;;;;12.07;3.55;;;11.70;99.90;;;;;;4964901;28;20058;-81
2023/12/28 02:36:06;;;;;;;12.63;4.43;;;11.80;99.90;;;;;;4948898;28;20042;-81
2023/12/28 02:38:35;;;;;;;16.05;5.32;;;11.80;99.90;;;;;;4965009;28;20062;-81
2023/12/28 02:41:02;;;;;;;15.18;5.43;;;11.80;99.90;;;;;;4964468;28;20090;-81
2023/12/28 02:43:29;;;;;;;12.27;3.30;;;11.70;99.90;;;;;;4948427;28;20051;-81
2023/12/28 02:45:56;;;;;;;12.70;3.15;;;11.70;99.90;;;;;;4967356;28;20043;-81
2023/12/28 02:48:23;;;;;;;10.95;3.67;;;11.60;99.90;;;;;;4949378;28;20047;-81
2023/12/28 02:50:50;;;;;;;12.18;4.05;;;11.70;99.90;;;;;;4964780;28;20198;-80
2023/12/28 02:53:17;;;;;;;8.98;3.45;;;11.70;99.90;;;;;;4951202;28;20414;-80
2023/12/28 02:55:45;;;;;;;9.52;3.13;;;11.60;99.90;;;;;;4957955;28;20369;-81
2023/12/28 02:58:12;;;;;;;9.32;3.17;;;11.60;99.90;;;;;;4966731;28;20549;-82
2023/12/28 03:00:39;;;;;;;11.95;3.78;;;11.60;99.90;;;;;;4950390;28;20113;-80
2023/12/28 03:03:06;;;;;;;9.93;2.58;;;11.60;99.90;;;;;;4960777;28;20825;-80
2023/12/28 03:05:33;;;;;;;10.48;3.30;;;11.60;99.90;;;;;;4963763;28;20082;-80
2023/12/28 03:08:01;;;;;;;13.35;3.85;;;11.60;99.90;;;;;;4961202;28;20054;-80
2023/12/28 03:10:29;;;;;;;10.75;3.20;;;11.60;99.90;;;;;;4964053;28;20548;-80
2023/12/28 03:12:57;;;;;;;13.07;4.53;;;11.70;99.90;;;;;;4964013;28;20097;-79
2023/12/28 03:15:25;;;;;;;9.10;3.63;;;11.70;99.90;;;;;;4964559;28;20271;-80
2023/12/28 03:17:52;;;;;;;6.65;2.92;;;11.80;99.90;;;;;;4948710;28;20085;-79
2023/12/28 03:20:19;;;;;;;13.02;4.07;;;11.80;99.90;;;;;;4963811;28;20535;-79
2023/12/28 03:22:46;;;;;;;11.88;4.20;;;11.80;99.90;;;;;;4950042;28;20058;-79
2023/12/28 03:25:14;;;;;;;12.63;3.22;;;11.70;99.90;;;;;;4967076;28;20058;-80
2023/12/28 03:27:41;;;;;;;7.03;2.97;;;11.70;99.90;;;;;;4965549;28;20062;-79
2023/12/28 03:30:12;;;;;;;7.97;2.88;;;11.70;99.90;;;;;;4965084;28;20050;-79
2023/12/28 03:32:39;;;;;;;9.95;2.80;;;11.70;99.90;;;;;;4967567;28;20572;-79
2023/12/28 03:35:07;;;;;;;10.38;2.85;;;11.70;99.90;;;;;;4965119;28;20047;-81
2023/12/28 03:37:34;;;;;;;12.27;3.33;;;11.70;99.90;;;;;;4965446;28;20050;-80
2023/12/28 03:40:01;;;;;;;7.50;2.65;;;11.70;99.90;;;;;;4973231;28;20046;-79
2023/12/28 03:42:28;;;;;;;7.57;3.15;;;11.70;99.90;;;;;;4967237;28;20050;-80
2023/12/28 03:44:55;;;;;;;8.02;3.33;;;11.80;99.90;;;;;;4965992;28;20129;-79
2023/12/28 03:47:24;;;;;;;9.18;3.35;;;11.80;99.90;;;;;;4966451;28;20121;-79
2023/12/28 03:49:51;;;;;;;7.53;2.78;;;11.90;99.90;;;;;;4968140;28;20047;-80
2023/12/28 03:52:18;;;;;;;8.20;2.95;;;11.90;99.90;;;;;;4952793;28;20370;-81
2023/12/28 03:54:45;;;;;;;12.93;3.38;;;11.90;99.90;;;;;;4971140;28;20433;-79
2023/12/28 03:57:12;;;;;;;8.02;3.03;;;11.80;99.90;;;;;;4953089;28;20051;-80
2023/12/28 03:59:39;;;;;;;9.00;3.10;;;11.80;99.90;;;;;;4966470;28;20150;-80
2023/12/28 04:02:06;;;;;;;8.40;3.33;;;11.80;99.90;;;;;;4970275;28;20049;-80
2023/12/28 04:04:33;;;;;;;7.38;2.55;;;11.80;99.90;;;;;;4968277;28;20062;-81
2023/12/28 04:07:00;;;;;;;14.45;4.35;;;11.70;99.90;;;;;;4968772;28;20074;-81
2023/12/28 04:09:27;;;;;;;10.70;3.95;;;11.70;99.90;;;;;;4962921;28;20043;-81
2023/12/28 04:11:55;;;;;;;7.78;2.95;;;11.70;99.90;;;;;;4965883;28;20058;-81
2023/12/28 04:14:21;;;;;;;8.10;3.72;;;11.70;99.90;;;;;;4968815;28;20050;-81
2023/12/28 04:16:49;;;;;;;9.45;2.60;;;11.70;99.90;;;;;;4970599;28;20063;-80
2023/12/28 04:19:16;;;;;;;8.10;2.88;;;11.70;99.90;;;;;;4952400;28;20061;-80
2023/12/28 04:21:47;;;;;;;13.20;3.78;;;11.70;99.90;;;;;;4953132;28;20054;-80
2023/12/28 04:24:14;;;;;;;7.72;2.70;;;11.80;99.90;;;;;;4978316;28;20210;-80
2023/12/28 04:26:41;;;;;;;6.40;2.72;;;11.80;99.90;;;;;;4969599;28;20086;-79
2023/12/28 04:29:07;;;;;;;13.23;3.45;;;11.80;99.90;;;;;;4961119;28;20046;-79
2023/12/28 04:31:40;;;;;;;11.38;3.83;;;11.90;99.90;;;;;;4968659;28;20050;-79
2023/12/28 04:34:08;;;;;;;12.48;3.83;;;11.90;99.90;;;;;;4945014;28;20058;-80
2023/12/28 04:36:44;;;;;;;14.27;3.92;;;12.00;99.90;;;;;;4968200;28;20046;-79
2023/12/28 04:39:12;;;;;;;9.85;4.28;;;12.00;99.90;;;;;;4968296;28;20473;-79
2023/12/28 04:41:39;;;;;;;15.75;4.60;;;12.00;99.90;;;;;;4968364;28;20047;-79
2023/12/28 04:44:06;;;;;;;16.88;4.70;;;12.00;99.90;;;;;;4968329;28;20046;-79
2023/12/28 04:46:37;;;;;;;10.85;4.40;;;12.00;99.90;;;;;;4962879;28;20784;-79
2023/12/28 04:49:04;;;;;;;9.13;3.25;;;12.10;99.90;;;;;;4968231;28;20571;-78
2023/12/28 04:51:31;;;;;;;15.13;4.35;;;12.00;99.90;;;;;;4951925;28;20057;-79
2023/12/28 04:53:58;;;;;;;10.38;3.35;;;12.00;99.90;;;;;;4968440;28;20047;-79
2023/12/28 04:56:25;;;;;;;14.20;3.53;;;12.00;99.90;;;;;;4968704;28;20050;-79
2023/12/28 04:58:52;;;;;;;16.10;4.53;;;12.00;99.90;;;;;;4970022;28;20054;-79
2023/12/28 05:01:19;;;;;;;15.05;4.32;;;12.00;99.90;;;;;;4956395;28;20059;-78
2023/12/28 05:03:46;;;;;;;9.00;2.90;;;12.00;99.90;;;;;;4961598;28;20051;-78
2023/12/28 05:06:13;;;;;;;10.02;3.33;;;12.00;99.90;;;;;;4967438;28;20394;-79
2023/12/28 05:08:40;;;;;;;10.75;3.92;;;12.00;99.90;;;;;;4969248;28;20047;-79
2023/12/28 05:11:07;;;;;;;12.00;3.95;;;12.00;99.90;;;;;;4968119;28;20470;-79
2023/12/28 05:13:34;;;;;;;10.80;4.28;;;12.00;99.90;;;;;;4967202;28;20508;-79
2023/12/28 05:16:01;;;;;;;8.18;2.80;;;11.90;99.90;;;;;;4969330;28;20054;-78
2023/12/28 05:18:28;;;;;;;8.35;3.30;;;11.90;99.90;;;;;;4966707;28;20094;-80
2023/12/28 05:20:55;;;;;;;10.07;3.42;;;11.80;99.90;;;;;;4967589;28;20426;-80
2023/12/28 05:23:22;;;;;;;12.43;3.53;;;11.80;99.90;;;;;;4952548;28;20157;-81
2023/12/28 05:25:50;;;;;;;9.10;3.03;;;11.80;99.90;;;;;;4968461;28;20101;-79
2023/12/28 05:28:17;;;;;;;8.88;3.22;;;11.90;99.90;;;;;;4968791;28;20058;-80
2023/12/28 05:30:44;;;;;;;11.93;4.45;;;11.90;99.90;;;;;;4969240;28;20662;-81
2023/12/28 05:33:12;;;;;;;8.10;2.88;;;11.90;99.90;;;;;;4967628;28;20095;-80
2023/12/28 05:35:39;;;;;;;8.45;3.53;;;11.90;99.90;;;;;;4968227;28;20525;-80
2023/12/28 05:38:06;;;;;;;13.65;4.40;;;11.80;99.90;;;;;;4963104;28;20043;-80
2023/12/28 05:40:33;;;;;;;9.73;3.95;;;11.80;99.90;;;;;;4948549;28;20482;-80
2023/12/28 05:43:00;;;;;;;8.70;3.70;;;11.90;99.90;;;;;;4949991;28;20517;-80
2023/12/28 05:45:27;;;;;;;7.28;2.40;;;11.90;99.90;;;;;;4951804;28;20051;-80
2023/12/28 05:47:54;;;;;;;7.78;2.33;;;11.90;99.90;;;;;;4964297;28;20058;-81
2023/12/28 05:50:22;;;;;;;12.57;4.80;;;11.90;99.90;;;;;;4961358;28;20098;-80
2023/12/28 05:52:49;;;;;;;8.75;3.30;;;11.90;99.90;;;;;;4946780;28;20446;-80
2023/12/28 05:55:16;;;;;;;8.75;2.75;;;12.00;99.90;;;;;;4962086;28;20053;-80
2023/12/28 05:57:43;;;;;;;15.10;4.47;;;12.00;99.90;;;;;;4965127;28;20101;-80
2023/12/28 06:00:10;;;;;;;15.57;4.00;;;12.00;99.90;;;;;;4966672;28;20110;-80
2023/12/28 06:02:37;;;;;;;9.65;2.90;;;12.00;99.90;;;;;;4930862;28;20054;-85
2023/12/28 06:05:05;;;;;;;8.18;3.40;;;12.00;99.90;;;;;;4937038;28;20038;-81
2023/12/28 06:07:32;;;;;;;11.10;2.92;;;11.90;99.90;;;;;;4962514;28;20051;-82
2023/12/28 06:09:59;;;;;;;10.35;4.15;;;11.80;99.90;;;;;;4958132;28;20050;-81
2023/12/28 06:12:27;;;;;;;11.55;3.78;;;11.80;99.90;;;;;;4944166;28;20055;-81
2023/12/28 06:14:54;;;;;;;9.88;3.60;;;11.80;99.90;;;;;;4944175;28;20097;-80
2023/12/28 06:17:21;;;;;;;8.82;3.40;;;11.90;99.90;;;;;;4962028;28;20126;-80
2023/12/28 06:19:49;;;;;;;7.65;2.97;;;11.80;99.90;;;;;;4962156;28;20444;-80
2023/12/28 06:22:17;;;;;;;10.52;3.70;;;11.80;99.90;;;;;;4963862;28;20043;-80
2023/12/28 06:24:44;;;;;;;5.55;2.53;;;11.70;99.90;;;;;;4962079;28;20651;-80
2023/12/28 06:27:11;;;;;;;10.15;3.65;;;11.60;99.90;;;;;;4981150;28;20054;-80
2023/12/28 06:29:38;;;;;;;8.25;3.25;;;11.40;99.90;;;;;;4961727;28;20517;-78
2023/12/28 06:32:05;;;;;;;9.18;2.65;;;11.30;99.90;;;;;;4963314;28;20059;-78
2023/12/28 06:34:32;;;;;;;10.52;2.97;;;11.30;99.90;;;;;;4959563;28;20055;-79
2023/12/28 06:37:01;;;;;;;7.00;2.45;;;11.20;99.90;;;;;;4961563;28;20068;-79
2023/12/28 06:39:28;;;;;;;5.97;2.45;;;11.10;99.90;;;;;;4980036;28;20042;-79
2023/12/28 06:41:55;;;;;;;6.00;1.65;;;11.10;1.00;;;;;;4962723;28;20312;-79
2023/12/28 06:44:22;;;;;;;7.05;2.42;;;11.00;99.90;;;;;;4961738;28;20074;-79
2023/12/28 06:46:49;;;;;;;5.28;1.67;;;10.90;99.90;;;;;;4961034;28;20046;-79
2023/12/28 06:49:16;;;;;;;6.40;2.00;;;10.90;99.90;;;;;;4962821;28;20062;-80
2023/12/28 06:51:46;;;;;;;7.97;2.75;;;10.80;99.90;;;;;;4960868;28;20417;-79
2023/12/28 06:54:14;;;;;;;6.25;2.15;;;10.80;1.00;;;;;;4961730;28;20337;-79
2023/12/28 06:56:42;;;;;;;8.63;2.25;;;10.80;1.00;;;;;;4958294;28;20050;-79
2023/12/28 06:59:12;;;;;;;6.90;1.90;;;10.80;1.00;;;;;;4958893;28;20054;-79
2023/12/28 07:01:39;;;;;;;5.82;2.10;;;10.80;1.00;;;;;;4960205;28;20050;-78
2023/12/28 07:04:07;;;;;;;8.00;2.50;;;10.70;1.00;;;;;;4957206;28;20043;-78
2023/12/28 07:06:34;;;;;;;6.70;2.40;;;10.70;99.90;;;;;;4958452;28;20058;-78
2023/12/28 07:09:02;;;;;;;7.72;2.95;;;10.80;1.00;;;;;;4962811;28;20043;-79
2023/12/28 07:11:29;;;;;;;8.25;2.88;;;10.80;99.90;;;;;;4940612;28;20065;-80
2023/12/28 07:13:56;;;;;;;9.45;2.72;;;10.80;99.90;;;;;;4951968;28;20390;-79
2023/12/28 07:16:23;;;;;;;7.88;3.17;;;10.90;99.90;;;;;;4949352;28;20054;-79
2023/12/28 07:18:50;;;;;;;5.47;2.28;;;10.90;99.90;;;;;;4952922;28;20062;-80
2023/12/28 07:21:17;;;;;;;7.00;2.72;;;10.90;99.90;;;;;;4950786;28;20568;-80
2023/12/28 07:23:49;;;;;;;12.27;3.60;;;11.00;99.90;;;;;;4951525;28;20043;-79
2023/12/28 07:26:16;;;;;;;9.88;3.55;;;11.00;99.90;;;;;;4955924;28;20058;-79
2023/12/28 07:28:44;;;;;;;10.95;4.05;;;11.00;99.90;;;;;;4979025;28;20133;-79
2023/12/28 07:31:12;;;;;;;12.23;3.60;;;11.00;99.90;;;;;;4954560;28;20861;-78
2023/12/28 07:33:39;;;;;;;11.93;3.50;;;11.10;99.90;;;;;;4935070;28;20051;-79
2023/12/28 07:36:10;;;;;;;13.20;4.78;;;11.10;99.90;;;;;;4937971;28;20117;-79
2023/12/28 07:38:38;;;;;;;8.93;2.80;;;11.10;99.90;;;;;;4954630;28;20046;-81
2023/12/28 07:41:06;;;;;;;10.82;3.88;;;11.00;99.90;;;;;;4943676;28;20129;-85
2023/12/28 07:43:33;;;;;;;13.52;4.07;;;11.00;99.90;;;;;;4981194;28;20051;-80
2023/12/28 07:46:02;;;;;;;5.15;2.22;;;11.00;99.90;;;;;;4937367;28;20512;-85
2023/12/28 07:48:30;;;;;;;8.98;2.92;;;11.00;99.90;;;;;;4954375;28;20679;-84
2023/12/28 07:50:59;;;;;;;9.10;3.03;;;11.00;99.90;;;;;;4968558;28;20463;-85
2023/12/28 07:53:27;;;;;;;11.68;3.15;;;11.00;99.90;;;;;;4930605;28;20055;-87
2023/12/28 07:55:56;;;;;;;12.38;4.30;;;11.10;99.90;;;;;;4947615;28;20094;-81
2023/12/28 07:58:23;;;;;;;10.38;3.35;;;11.10;99.90;;;;;;4955241;28;20046;-82
2023/12/28 08:00:52;;;;;;;12.63;3.10;;;11.20;99.90;;;;;;4942246;28;20061;-82
2023/12/28 08:03:19;;;;;;;8.82;3.35;;;11.20;99.90;;;;;;4953633;28;20187;-81
2023/12/28 08:05:46;;;;;;;9.48;3.38;;;11.10;99.90;;;;;;4956454;28;20082;-81
2023/12/28 08:08:14;;;;;;;11.35;3.85;;;11.10;99.90;;;;;;4926850;28;20058;-81
2023/12/28 08:10:41;;;;;;;9.68;3.97;;;11.10;99.90;;;;;;4959515;28;20051;-80
2023/12/28 08:13:08;;;;;;;10.27;3.67;;;11.10;99.90;;;;;;4959394;28;20062;-81
2023/12/28 08:15:38;;;;;;;10.68;4.32;;;11.10;99.90;;;;;;4928319;28;20121;-85
2023/12/28 08:18:06;;;;;;;9.15;3.03;;;11.10;99.90;;;;;;4954649;28;20065;-82
2023/12/28 08:20:33;;;;;;;8.57;3.28;;;11.10;99.90;;;;;;4963789;28;20050;-83
2023/12/28 08:23:01;;;;;;;16.33;3.70;;;11.10;99.90;;;;;;4957283;28;20062;-79
2023/12/28 08:25:46;;;;;;;11.95;3.80;;;11.10;99.90;;;;;;4955078;28;20059;-80
2023/12/28 08:28:13;;;;;;;8.38;3.00;;;11.10;99.90;;;;;;4951105;28;21026;-83
2023/12/28 08:30:41;;;;;;;11.98;4.43;;;11.10;99.90;;;;;;4918474;28;20063;-81
2023/12/28 08:33:09;;;;;;;8.50;2.80;;;11.10;99.90;;;;;;4959978;28;20061;-82
2023/12/28 08:35:37;;;;;;;7.43;2.85;;;11.10;99.90;;;;;;4951930;28;20059;-83
2023/12/28 08:38:06;;;;;;;7.18;2.95;;;11.10;99.90;;;;;;4955167;28;20054;-86
2023/12/28 08:40:33;;;;;;;9.05;2.53;;;11.10;99.90;;;;;;4944836;28;20088;-81
2023/12/28 08:43:01;;;;;;;10.13;3.20;;;11.10;99.90;;;;;;4947907;28;20090;-77
2023/12/28 08:45:28;;;;;;;7.32;2.40;;;11.10;99.90;;;;;;4965649;28;20050;-79
2023/12/28 08:47:55;;;;;;;11.10;3.00;;;11.10;99.90;;;;;;4962228;28;20061;-78
2023/12/28 08:50:23;;;;;;;8.10;3.10;;;11.20;99.90;;;;;;4951544;28;20042;-78
2023/12/28 08:52:50;;;;;;;5.07;2.78;;;11.20;99.90;;;;;;4959611;28;20058;-79
2023/12/28 08:55:17;;;;;;;6.32;2.35;;;11.20;99.90;;;;;;4959972;28;20078;-79
2023/12/28 08:57:44;;;;;;;7.22;3.13;;;11.20;99.90;;;;;;4957462;28;20069;-78
2023/12/28 09:00:14;;;;;;;11.75;3.42;;;11.10;99.90;;;;;;4942377;28;20129;-78
2023/12/28 09:02:42;;;;;;;13.52;3.50;;;11.20;99.90;;;;;;4957576;28;20180;-79
2023/12/28 09:05:10;;;;;;;10.50;3.53;;;11.20;99.90;;;;;;4959638;28;20137;-78
2023/12/28 09:07:42;;;;;;;7.97;2.60;;;11.20;99.90;;;;;;4956300;28;20358;-77
2023/12/28 09:10:11;;;;;;;9.60;3.38;;;11.20;99.90;;;;;;4942349;28;20082;-79
2023/12/28 09:12:38;;;;;;;9.32;2.97;;;11.30;99.90;;;;;;4952628;28;20055;-78
2023/12/28 09:15:06;;;;;;;7.32;2.55;;;11.30;99.90;;;;;;4970251;28;20135;-77
2023/12/28 09:17:33;;;;;;;11.40;3.15;;;11.40;99.90;;;;;;4965998;28;20053;-79
2023/12/28 09:20:01;;;;;;;10.85;3.30;;;11.40;99.90;;;;;;4981423;28;20042;-79
2023/12/28 09:22:28;;;;;;;8.25;2.53;;;11.50;99.90;;;;;;4963578;28;20034;-79
2023/12/28 09:24:57;;;;;;;14.98;4.15;;;11.50;99.90;;;;;;4963676;28;20061;-79
2023/12/28 09:27:24;;;;;;;9.55;2.80;;;11.60;99.90;;;;;;4958908;28;20082;-79
2023/12/28 09:29:51;;;;;;;8.75;2.80;;;11.70;99.90;;;;;;4944356;28;20133;-77
2023/12/28 09:32:18;;;;;;;13.15;3.67;;;11.70;99.90;;;;;;4963822;28;20055;-79
2023/12/28 09:34:45;;;;;;;7.97;3.08;;;11.80;99.90;;;;;;4962859;28;20090;-78
2023/12/28 09:37:12;;;;;;;8.55;3.13;;;11.90;99.90;;;;;;4961745;28;20061;-78
2023/12/28 09:39:41;;;;;;;11.20;3.00;;;11.90;99.90;;;;;;4965085;28;20122;-79
2023/12/28 09:42:17;;;;;;;10.13;3.83;;;12.00;99.90;;;;;;4963813;28;20658;-78
2023/12/28 09:44:44;;;;;;;11.50;4.97;;;12.00;99.90;;;;;;4963244;28;20058;-78
2023/12/28 09:47:14;;;;;;;9.48;3.42;;;12.10;99.90;;;;;;4964595;28;20409;-76
2023/12/28 09:49:41;;;;;;;12.50;3.50;;;12.10;99.90;;;;;;4962595;28;20051;-77
2023/12/28 09:52:08;;;;;;;8.75;3.38;;;12.20;99.90;;;;;;4945687;28;20051;-78
2023/12/28 09:54:35;;;;;;;8.38;3.35;;;12.10;99.90;;;;;;4945085;28;20051;-78
2023/12/28 09:57:03;;;;;;;10.40;3.58;;;12.20;99.90;;;;;;4959651;28;20693;-77
2023/12/28 09:59:31;;;;;;;8.75;4.13;;;12.30;99.90;;;;;;4959002;28;20137;-78
2023/12/28 10:02:00;;;;;;;10.82;3.40;;;12.30;99.90;;;;;;4947536;28;20105;-77
2023/12/28 10:04:29;;;;;;;10.15;3.15;;;12.30;99.90;;;;;;4957262;28;20059;-78
2023/12/28 10:06:56;;;;;;;11.27;3.78;;;12.30;99.90;;;;;;4958125;28;20070;-77
2023/12/28 10:09:26;;;;;;;9.43;3.50;;;12.30;99.90;;;;;;4959337;28;20053;-77
2023/12/28 10:11:56;;;;;;;13.68;4.65;;;12.40;99.90;;;;;;4954624;28;20114;-78
2023/12/28 10:14:24;;;;;;;14.30;5.25;;;12.40;99.90;;;;;;4959593;28;20131;-78
2023/12/28 10:16:51;;;;;;;15.25;4.05;;;12.50;99.90;;;;;;4940051;28;20101;-77
2023/12/28 10:19:22;;;;;;;11.30;3.60;;;12.50;99.90;;;;;;4959488;28;20043;-77
2023/12/28 10:21:50;;;;;;;8.45;3.10;;;12.50;1.00;;;;;;4961225;28;20124;-77
2023/12/28 10:24:17;;;;;;;11.05;2.80;;;12.50;99.90;;;;;;4958256;28;20126;-76
2023/12/28 10:26:45;;;;;;;6.70;3.10;;;12.60;99.90;;;;;;4958575;28;20799;-77
2023/12/28 10:29:13;;;;;;;6.35;2.58;;;12.50;99.90;;;;;;4952462;28;20671;-77
2023/12/28 10:31:44;;;;;;;7.15;2.83;;;12.60;99.90;;;;;;4956526;28;20069;-78
2023/12/28 10:34:13;;;;;;;11.55;3.38;;;12.60;99.90;;;;;;4955621;28;20139;-78
2023/12/28 10:36:41;;;;;;;9.02;2.90;;;12.60;99.90;;;;;;4957711;28;20153;-77
2023/12/28 10:39:13;;;;;;;7.05;3.00;;;12.60;99.90;;;;;;4959038;28;20184;-78
2023/12/28 10:41:41;;;;;;;8.23;3.30;;;12.60;99.90;;;;;;4959741;28;20081;-77
2023/12/28 10:44:08;;;;;;;7.70;2.60;;;12.60;99.90;;;;;;4958288;28;20163;-78
2023/12/28 10:46:41;;;;;;;7.93;2.95;;;12.70;99.90;;;;;;4953472;28;20046;-78
2023/12/28 10:49:15;;;;;;;6.95;2.60;;;12.70;99.90;;;;;;4941164;28;20058;-76
2023/12/28 10:51:43;;;;;;;7.03;2.70;;;12.70;99.90;;;;;;4952372;28;20215;-77
2023/12/28 10:54:39;;;;;;;9.30;2.95;;;12.70;99.90;;;;;;4956671;28;20055;-77
2023/12/28 10:57:16;;;;;;;5.32;2.45;;;12.60;1.00;;;;;;4956739;28;20202;-78
2023/12/28 11:00:02;;;;;;;8.60;3.25;;;12.60;99.90;;;;;;4941788;28;20144;-78
2023/12/28 11:02:41;;;;;;;6.05;2.58;;;12.60;99.90;;;;;;4956837;28;20536;-77
2023/12/28 11:05:09;;;;;;;7.95;2.97;;;12.50;99.90;;;;;;4977628;28;20051;-77
2023/12/28 11:07:37;;;;;;;8.30;2.75;;;12.40;99.90;;;;;;4953035;28;20055;-76
2023/12/28 11:10:06;;;;;;;9.15;2.42;;;12.40;99.90;;;;;;4953821;28;20130;-76
2023/12/28 11:12:34;;;;;;;10.60;3.30;;;12.30;99.90;;;;;;4977000;28;20055;-78
2023/12/28 11:15:02;;;;;;;9.30;3.28;;;12.20;99.90;;;;;;4952628;28;21453;-78
2023/12/28 11:17:31;;;;;;;6.28;3.08;;;12.20;99.90;;;;;;4952956;28;20069;-79
2023/12/28 11:19:58;;;;;;;7.47;2.20;;;12.20;99.90;;;;;;4937031;28;20145;-77
2023/12/28 11:22:25;;;;;;;6.97;2.90;;;12.30;99.90;;;;;;4937828;28;20074;-77
2023/12/28 11:24:53;;;;;;;6.30;2.47;;;12.40;99.90;;;;;;4978880;28;20050;-78
2023/12/28 11:27:20;;;;;;;4.95;2.00;;;12.50;99.90;;;;;;4961723;28;20049;-79
2023/12/28 11:29:52;;;;;;;6.90;2.40;;;12.70;99.90;;;;;;4954854;28;20717;-78
2023/12/28 11:32:20;;;;;;;8.55;2.72;;;12.70;99.90;;;;;;4955133;28;20439;-78
2023/12/28 11:34:58;;;;;;;7.50;2.42;;;12.70;99.90;;;;;;4953956;28;20147;-77
2023/12/28 11:37:30;;;;;;;7.45;2.60;;;12.80;99.90;;;;;;4957952;28;20512;-77
2023/12/28 11:40:16;;;;;;;5.03;2.20;;;12.80;99.90;;;;;;4953898;28;20157;-76
2023/12/28 11:42:50;;;;;;;7.60;2.47;;;12.90;99.90;;;;;;4957171;28;20054;-78
2023/12/28 11:45:21;;;;;;;7.53;2.60;;;12.90;99.90;;;;;;4955618;28;20138;-77
2023/12/28 11:48:04;;;;;;;9.23;3.05;;;13.00;1.00;;;;;;4961793;28;20676;-78
2023/12/28 11:50:31;;;;;;;8.45;2.90;;;13.00;99.90;;;;;;4954707;28;20050;-77
2023/12/28 11:52:59;;;;;;;8.25;2.88;;;12.90;99.90;;;;;;4936671;28;20065;-77
2023/12/28 11:55:26;;;;;;;8.98;3.30;;;12.90;99.90;;;;;;4955869;28;20072;-77
2023/12/28 11:57:53;;;;;;;6.28;2.67;;;13.00;99.90;;;;;;4954895;28;20047;-78
2023/12/28 12:00:21;;;;;;;8.55;3.60;;;13.00;1.00;;;;;;4949379;28;20082;-77
2023/12/28 12:02:48;;;;;;;12.23;3.20;;;13.10;99.90;;;;;;4920640;28;20097;-77
2023/12/28 12:05:15;;;;;;;8.43;2.65;;;13.20;99.90;;;;;;4953146;28;20054;-77
2023/12/28 12:07:42;;;;;;;6.88;2.50;;;13.20;99.90;;;;;;4953640;28;20496;-82
2023/12/28 12:10:14;;;;;;;5.50;2.63;;;13.30;99.90;;;;;;4937998;28;20078;-81
2023/12/28 12:12:42;;;;;;;5.35;2.35;;;13.30;99.90;;;;;;4960119;28;20057;-82
2023/12/28 12:15:09;;;;;;;7.95;3.25;;;13.30;99.90;;;;;;4940678;28;20055;-81
2023/12/28 12:17:36;;;;;;;8.38;2.80;;;13.40;1.00;;;;;;4942285;28;20078;-80
2023/12/28 12:20:04;;;;;;;9.13;3.22;;;13.50;99.90;;;;;;4964322;28;20593;-82
2023/12/28 12:22:32;;;;;;;6.07;2.58;;;13.50;99.90;;;;;;4960078;28;20050;-83
2023/12/28 12:24:59;;;;;;;7.95;2.97;;;13.50;1.00;;;;;;4926675;28;20051;-82
2023/12/28 12:27:26;;;;;;;7.22;2.75;;;13.50;1.00;;;;;;4966362;28;20051;-81
2023/12/28 12:29:54;;;;;;;10.95;3.20;;;13.50;1.00;;;;;;4982796;28;20051;-81
2023/12/28 12:32:21;;;;;;;7.47;2.80;;;13.40;99.90;;;;;;4926565;28;20450;-80
2023/12/28 12:34:49;;;;;;;9.90;3.63;;;13.40;1.00;;;;;;4956296;28;20054;-80
2023/12/28 12:37:16;;;;;;;12.10;3.30;;;13.30;99.90;;;;;;4954805;28;20648;-80
2023/12/28 12:39:43;;;;;;;12.45;4.03;;;13.30;99.90;;;;;;4942908;28;20714;-81
2023/12/28 12:42:14;;;;;;;7.93;2.78;;;13.20;1.00;;;;;;4959298;28;20143;-80
2023/12/28 12:44:41;;;;;;;8.23;3.28;;;13.10;1.00;;;;;;4963490;28;20055;-80
2023/12/28 12:47:08;;;;;;;14.30;4.13;;;13.10;1.00;;;;;;4957028;28;20051;-80